createdAt,value
2023-04-29T00:03:15.509Z,19.40
2023-04-29T00:08:18.148Z,17.73
2023-04-29T00:13:21.987Z,18.70
2023-04-29T00:18:24.469Z,18.57
2023-04-29T00:23:26.966Z,17.48
2023-04-29T00:28:30.805Z,17.20
2023-04-29T00:33:33.267Z,17.90
2023-04-29T00:38:35.754Z,17.23
2023-04-29T00:43:39.591Z,19.02
2023-04-29T00:48:42.338Z,18.23
2023-04-29T00:53:45.031Z,18.02
2023-04-29T00:58:51.726Z,21.90
2023-04-29T01:03:54.978Z,20.50
2023-04-29T01:09:11.954Z,19.33
2023-04-29T01:14:16.500Z,22.50
2023-04-29T01:19:32.546Z,24.13
2023-04-29T01:24:36.393Z,20.27
2023-04-29T01:29:44.980Z,21.67
2023-04-29T01:34:55.989Z,24.17
2023-04-29T01:40:09.382Z,22.77
2023-04-29T01:45:12.756Z,23.48
2023-04-29T01:50:15.264Z,22.65
2023-04-29T01:55:20.076Z,21.67
2023-04-29T02:00:22.788Z,22.80
2023-04-29T02:05:25.816Z,23.23
2023-04-29T02:10:29.751Z,22.35
2023-04-29T02:15:32.225Z,21.53
2023-04-29T02:20:34.683Z,23.55
2023-04-29T02:25:38.659Z,23.70
2023-04-29T02:30:41.464Z,25.83
2023-04-29T02:35:43.952Z,24.10
2023-04-29T02:40:48.144Z,23.98
2023-04-29T02:45:50.713Z,23.80
2023-04-29T02:50:53.278Z,26.53
2023-04-29T02:55:57.369Z,26.20
2023-04-29T03:01:00.002Z,23.77
2023-04-29T03:06:02.463Z,24.17
2023-04-29T03:11:06.647Z,25.90
2023-04-29T03:16:09.869Z,24.65
2023-04-29T03:21:12.388Z,24.17
2023-04-29T03:26:16.286Z,27.38
2023-04-29T03:31:20.870Z,33.35
2023-04-29T03:36:23.423Z,27.40
2023-04-29T03:41:27.254Z,27.33
2023-04-29T03:46:29.852Z,32.63
2023-04-29T03:51:32.666Z,26.35
2023-04-29T03:56:36.480Z,27.00
2023-04-29T04:01:39.028Z,27.92
2023-04-29T04:06:41.569Z,31.27
2023-04-29T04:11:45.611Z,30.70
2023-04-29T04:16:50.572Z,30.45
2023-04-29T04:21:53.200Z,31.80
2023-04-29T04:26:57.000Z,30.13
2023-04-29T04:31:59.495Z,32.40
2023-04-29T04:37:02.062Z,28.67
2023-04-29T04:42:05.945Z,31.70
2023-04-29T04:47:08.437Z,28.90
2023-04-29T04:52:11.583Z,31.60
2023-04-29T04:57:16.461Z,28.42
2023-04-29T05:02:19.179Z,27.60
2023-04-29T05:07:21.720Z,28.95
2023-04-29T05:12:30.480Z,27.20
2023-04-29T05:17:34.541Z,29.27
2023-04-29T05:22:37.110Z,26.83
2023-04-29T05:27:41.158Z,28.23
2023-04-29T05:32:45.310Z,25.15
2023-04-29T05:37:47.826Z,24.83
2023-04-29T05:42:51.944Z,24.15
2023-04-29T05:47:54.458Z,30.05
2023-04-29T05:52:57.394Z,26.00
2023-04-29T05:58:01.244Z,25.10
2023-04-29T06:03:03.882Z,29.05
2023-04-29T06:08:07.307Z,27.03
2023-04-29T06:13:11.258Z,26.73
2023-04-29T06:18:13.900Z,22.45
2023-04-29T06:23:16.403Z,19.15
2023-04-29T06:28:20.484Z,23.03
2023-04-29T06:33:22.955Z,21.10
2023-04-29T06:38:25.433Z,20.35
2023-04-29T06:43:29.242Z,19.40
2023-04-29T06:48:31.732Z,21.63
2023-04-29T06:53:34.208Z,22.05
2023-04-29T06:58:38.375Z,20.80
2023-04-29T07:03:41.035Z,20.67
2023-04-29T07:08:43.698Z,22.17
2023-04-29T07:13:47.507Z,23.83
2023-04-29T07:18:50.098Z,19.47
2023-04-29T07:23:52.567Z,21.65
2023-04-29T07:28:56.365Z,20.27
2023-04-29T07:33:58.834Z,22.70
2023-04-29T07:39:01.316Z,23.20
2023-04-29T07:44:05.524Z,22.00
2023-04-29T07:49:07.999Z,21.13
2023-04-29T07:54:10.889Z,18.60
2023-04-29T07:59:14.878Z,16.90
2023-04-29T08:04:17.639Z,21.23
2023-04-29T08:09:20.493Z,19.50
2023-04-29T08:14:24.447Z,19.88
2023-04-29T08:19:26.941Z,15.80
2023-04-29T08:24:29.706Z,15.67
2023-04-29T08:29:34.304Z,19.33
2023-04-29T08:34:37.570Z,18.30
2023-04-29T08:39:40.057Z,20.17
2023-04-29T08:44:44.483Z,19.73
2023-04-29T08:49:46.989Z,17.88
2023-04-29T08:54:49.500Z,14.98
2023-04-29T08:59:53.469Z,15.90
2023-04-29T09:05:06.078Z,14.77
2023-04-29T09:10:09.565Z,13.77
2023-04-29T09:15:13.557Z,13.50
2023-04-29T09:20:27.950Z,13.15
2023-04-29T09:25:31.245Z,18.00
2023-04-29T09:30:47.037Z,12.13
2023-04-29T09:35:49.876Z,13.30
2023-04-29T09:40:59.607Z,11.25
2023-04-29T09:46:04.071Z,13.57
2023-04-29T09:51:07.072Z,12.97
2023-04-29T09:56:09.586Z,14.52
2023-04-29T10:01:14.342Z,13.30
2023-04-29T10:06:18.247Z,13.27
2023-04-29T10:11:21.581Z,13.05
2023-04-29T10:16:30.116Z,12.70
2023-04-29T10:21:33.089Z,13.40
2023-04-29T10:26:39.529Z,13.80
2023-04-29T10:31:44.555Z,16.38
2023-04-29T10:36:48.140Z,12.00
2023-04-29T10:41:52.428Z,11.03
2023-04-29T10:47:20.878Z,11.82
2023-04-29T10:52:23.373Z,10.95
2023-04-29T10:57:26.935Z,11.87
2023-04-29T11:02:30.800Z,9.88
2023-04-29T11:07:33.337Z,9.60
2023-04-29T11:12:35.835Z,11.07
2023-04-29T11:17:41.178Z,9.97
2023-04-29T11:22:52.132Z,10.93
2023-04-29T11:27:56.749Z,10.98
2023-04-29T11:33:01.145Z,7.70
2023-04-29T11:38:05.742Z,7.47
2023-04-29T11:43:08.218Z,8.40
2023-04-29T11:48:19.155Z,10.67
2023-04-29T11:53:22.849Z,8.48
2023-04-29T11:58:25.674Z,9.27
2023-04-29T12:03:29.715Z,11.47
2023-04-29T12:08:33.995Z,8.50
2023-04-29T12:13:36.928Z,8.07
2023-04-29T12:18:41.050Z,8.80
2023-04-29T12:23:43.939Z,8.87
2023-04-29T12:28:46.509Z,9.00
2023-04-29T12:33:50.373Z,10.25
2023-04-29T12:38:54.575Z,10.17
2023-04-29T12:43:57.588Z,8.02
2023-04-29T12:49:03.174Z,10.50
2023-04-29T12:54:07.224Z,7.83
2023-04-29T12:59:11.766Z,8.90
2023-04-29T13:04:15.818Z,8.90
2023-04-29T13:09:19.157Z,9.45
2023-04-29T13:14:22.163Z,10.00
2023-04-29T13:19:43.294Z,10.57
2023-04-29T13:24:48.534Z,9.30
2023-04-29T13:29:51.192Z,12.13
2023-04-29T13:34:55.593Z,12.00
2023-04-29T13:39:58.146Z,11.05
2023-04-29T13:45:00.781Z,11.00
2023-04-29T14:00:38.158Z,10.68
2023-04-29T14:05:42.484Z,11.07
2023-04-29T14:10:45.068Z,8.43
2023-04-29T14:15:47.643Z,8.15
2023-04-29T14:20:51.584Z,9.93
2023-04-29T14:25:58.899Z,13.32
2023-04-29T14:31:09.039Z,11.20
2023-04-29T14:36:12.876Z,12.57
2023-04-29T14:41:15.894Z,10.73
2023-04-29T14:46:18.502Z,11.07
2023-04-29T14:51:22.373Z,12.68
2023-04-29T14:56:24.868Z,15.63
2023-04-29T15:01:28.679Z,13.77
2023-04-29T15:06:34.287Z,12.13
2023-04-29T15:11:36.806Z,13.07
2023-04-29T15:16:39.451Z,14.80
2023-04-29T15:21:43.304Z,13.45
2023-04-29T15:26:46.485Z,13.97
2023-04-29T15:31:49.043Z,13.57
2023-04-29T15:36:53.018Z,11.32
2023-04-29T15:41:55.513Z,9.77
2023-04-29T15:46:58.016Z,13.63
2023-04-29T15:52:02.496Z,9.13
2023-04-29T15:57:05.298Z,9.38
2023-04-29T16:02:10.703Z,8.50
2023-04-29T16:07:14.876Z,7.85
2023-04-29T16:12:17.390Z,9.43
2023-04-29T16:17:20.453Z,8.40
2023-04-29T16:22:24.449Z,5.40
2023-04-29T16:27:29.815Z,6.88
2023-04-29T16:32:33.468Z,5.50
2023-04-29T16:37:37.473Z,6.53
2023-04-29T16:42:39.943Z,7.05
2023-04-29T16:47:42.970Z,5.80
2023-04-29T16:52:46.975Z,5.67
2023-04-29T16:57:49.459Z,5.93
2023-04-29T17:02:52.845Z,5.25
2023-04-29T17:07:56.856Z,6.93
2023-04-29T17:12:59.407Z,6.67
2023-04-29T17:18:01.936Z,6.95
2023-04-29T17:23:06.296Z,6.28
2023-04-29T17:28:08.782Z,6.50
2023-04-29T17:33:13.259Z,8.60
2023-04-29T17:38:17.667Z,11.95
2023-04-29T17:43:20.136Z,6.53
2023-04-29T17:48:22.694Z,5.78
2023-04-29T17:53:28.446Z,5.85
2023-04-29T17:58:30.952Z,9.17
2023-04-29T18:03:33.541Z,6.57
2023-04-29T18:08:37.414Z,7.20
2023-04-29T18:13:40.224Z,8.43
2023-04-29T18:18:43.123Z,6.83
2023-04-29T18:23:47.629Z,7.05
2023-04-29T18:28:50.622Z,8.68
2023-04-29T18:33:53.136Z,8.33
2023-04-29T18:38:57.039Z,9.43
2023-04-29T18:43:59.624Z,9.88
2023-04-29T18:49:02.097Z,7.50
2023-04-29T18:54:06.152Z,6.93
2023-04-29T18:59:10.078Z,9.07
2023-04-29T19:04:12.656Z,5.25
2023-04-29T19:09:16.504Z,8.27
2023-04-29T19:14:19.289Z,10.35
2023-04-29T19:19:21.823Z,8.75
2023-04-29T19:24:25.782Z,5.17
2023-04-29T19:29:28.271Z,5.38
2023-04-29T19:34:30.855Z,5.45
2023-04-29T19:39:34.702Z,7.07
2023-04-29T19:44:37.202Z,7.73
2023-04-29T19:49:39.790Z,10.18
2023-04-29T19:54:43.624Z,6.55
2023-04-29T19:59:46.224Z,7.60
2023-04-29T20:04:49.135Z,7.05
2023-04-29T20:09:53.213Z,8.20
2023-04-29T20:14:56.316Z,10.20
2023-04-29T20:19:59.047Z,5.60
2023-04-29T20:25:03.049Z,9.93
2023-04-29T20:30:06.819Z,8.07
2023-04-29T20:35:09.353Z,6.73
2023-04-29T20:40:13.873Z,8.38
2023-04-29T20:45:16.659Z,8.57
2023-04-29T20:50:19.205Z,7.47
2023-04-29T20:55:23.330Z,11.75
2023-04-29T21:00:25.856Z,9.15
2023-04-29T21:05:28.354Z,7.40
2023-04-29T21:10:32.278Z,12.43
2023-04-29T21:15:34.821Z,9.63
2023-04-29T21:20:37.352Z,7.80
2023-04-29T21:25:41.179Z,10.37
2023-04-29T21:30:43.673Z,10.55
2023-04-29T21:35:49.754Z,10.82
2023-04-29T21:40:54.144Z,12.23
2023-04-29T21:45:56.649Z,11.13
2023-04-29T21:50:59.933Z,10.57
2023-04-29T21:56:03.933Z,10.77
2023-04-29T22:01:25.852Z,9.32
2023-04-29T22:06:28.480Z,9.45
2023-04-29T22:11:32.369Z,11.53
2023-04-29T22:16:35.894Z,11.67
2023-04-29T22:21:40.712Z,11.43
2023-04-29T22:26:44.502Z,9.73
2023-04-29T22:31:47.298Z,11.23
2023-04-29T22:36:49.804Z,11.40
2023-04-29T22:41:53.647Z,9.13
2023-04-29T22:46:56.105Z,11.40
2023-04-29T22:51:58.611Z,9.43
2023-04-29T22:57:03.511Z,17.08
2023-04-29T23:02:06.003Z,12.00
2023-04-29T23:07:08.500Z,10.73
2023-04-29T23:12:12.303Z,16.15
2023-04-29T23:17:14.805Z,12.90
2023-04-29T23:22:17.698Z,11.07
2023-04-29T23:27:21.654Z,12.60
2023-04-29T23:32:24.847Z,13.38
2023-04-29T23:37:27.442Z,11.23
2023-04-29T23:42:31.414Z,10.90
2023-04-29T23:47:33.953Z,11.48
2023-04-29T23:52:36.447Z,11.43
2023-04-29T23:57:40.340Z,10.87
